sensor_id;sensor_type;location;lat;lon;timestamp;P1;durP1;ratioP1;P2;durP2;ratioP2
43449;SDS011;29041;42.266;23.110;2023-10-19T00:01:00;16.75;;;8.55;;
43449;SDS011;29041;42.266;23.110;2023-10-19T00:03:48;20.85;;;7.70;;
43449;SDS011;29041;42.266;23.110;2023-10-19T00:06:35;18.23;;;7.85;;
43449;SDS011;29041;42.266;23.110;2023-10-19T00:09:25;17.70;;;8.20;;
43449;SDS011;29041;42.266;23.110;2023-10-19T00:12:17;16.73;;;6.75;;
43449;SDS011;29041;42.266;23.110;2023-10-19T00:15:07;12.32;;;7.97;;
43449;SDS011;29041;42.266;23.110;2023-10-19T00:17:55;12.15;;;7.53;;
43449;SDS011;29041;42.266;23.110;2023-10-19T00:20:44;14.35;;;8.27;;
43449;SDS011;29041;42.266;23.110;2023-10-19T00:23:36;14.82;;;7.05;;
43449;SDS011;29041;42.266;23.110;2023-10-19T00:26:25;13.48;;;8.25;;
43449;SDS011;29041;42.266;23.110;2023-10-19T00:29:14;12.38;;;6.82;;
43449;SDS011;29041;42.266;23.110;2023-10-19T00:32:16;14.63;;;7.32;;
43449;SDS011;29041;42.266;23.110;2023-10-19T00:35:05;15.90;;;7.80;;
43449;SDS011;29041;42.266;23.110;2023-10-19T00:38:13;14.90;;;7.72;;
43449;SDS011;29041;42.266;23.110;2023-10-19T00:41:25;15.15;;;6.55;;
43449;SDS011;29041;42.266;23.110;2023-10-19T00:44:14;12.75;;;6.10;;
43449;SDS011;29041;42.266;23.110;2023-10-19T00:49:58;12.75;;;6.53;;
43449;SDS011;29041;42.266;23.110;2023-10-19T00:52:50;14.52;;;7.20;;
43449;SDS011;29041;42.266;23.110;2023-10-19T00:55:39;10.60;;;6.90;;
43449;SDS011;29041;42.266;23.110;2023-10-19T00:58:28;10.70;;;7.15;;
43449;SDS011;29041;42.266;23.110;2023-10-19T01:01:16;10.85;;;6.72;;
43449;SDS011;29041;42.266;23.110;2023-10-19T01:04:06;17.60;;;8.27;;
43449;SDS011;29041;42.266;23.110;2023-10-19T01:06:54;17.70;;;7.25;;
43449;SDS011;29041;42.266;23.110;2023-10-19T01:09:57;22.02;;;8.10;;
43449;SDS011;29041;42.266;23.110;2023-10-19T01:12:47;16.25;;;7.13;;
43449;SDS011;29041;42.266;23.110;2023-10-19T01:15:35;21.58;;;7.05;;
43449;SDS011;29041;42.266;23.110;2023-10-19T01:18:23;13.75;;;6.30;;
43449;SDS011;29041;42.266;23.110;2023-10-19T01:21:14;11.98;;;6.68;;
43449;SDS011;29041;42.266;23.110;2023-10-19T01:24:11;9.55;;;4.88;;
43449;SDS011;29041;42.266;23.110;2023-10-19T01:27:03;11.25;;;6.22;;
43449;SDS011;29041;42.266;23.110;2023-10-19T01:29:54;15.20;;;5.82;;
43449;SDS011;29041;42.266;23.110;2023-10-19T01:32:45;12.10;;;5.72;;
43449;SDS011;29041;42.266;23.110;2023-10-19T01:35:33;14.27;;;6.25;;
43449;SDS011;29041;42.266;23.110;2023-10-19T01:38:35;10.67;;;6.57;;
43449;SDS011;29041;42.266;23.110;2023-10-19T01:41:25;15.50;;;6.35;;
43449;SDS011;29041;42.266;23.110;2023-10-19T01:44:16;12.90;;;7.13;;
43449;SDS011;29041;42.266;23.110;2023-10-19T01:47:02;15.38;;;6.28;;
43449;SDS011;29041;42.266;23.110;2023-10-19T01:49:51;15.27;;;8.02;;
43449;SDS011;29041;42.266;23.110;2023-10-19T01:52:37;15.73;;;8.18;;
43449;SDS011;29041;42.266;23.110;2023-10-19T01:55:24;17.88;;;6.80;;
43449;SDS011;29041;42.266;23.110;2023-10-19T01:58:13;13.30;;;6.68;;
43449;SDS011;29041;42.266;23.110;2023-10-19T02:01:01;18.10;;;6.40;;
43449;SDS011;29041;42.266;23.110;2023-10-19T02:03:49;11.88;;;5.32;;
43449;SDS011;29041;42.266;23.110;2023-10-19T02:06:40;13.57;;;6.57;;
43449;SDS011;29041;42.266;23.110;2023-10-19T02:09:28;11.30;;;6.50;;
43449;SDS011;29041;42.266;23.110;2023-10-19T02:12:18;10.85;;;6.28;;
43449;SDS011;29041;42.266;23.110;2023-10-19T02:15:07;14.38;;;7.45;;
43449;SDS011;29041;42.266;23.110;2023-10-19T02:17:54;9.63;;;5.97;;
43449;SDS011;29041;42.266;23.110;2023-10-19T02:20:45;12.60;;;6.25;;
43449;SDS011;29041;42.266;23.110;2023-10-19T02:23:33;13.85;;;7.65;;
43449;SDS011;29041;42.266;23.110;2023-10-19T02:26:21;10.35;;;7.78;;
43449;SDS011;29041;42.266;23.110;2023-10-19T02:29:08;15.15;;;5.78;;
43449;SDS011;29041;42.266;23.110;2023-10-19T02:31:57;12.25;;;5.55;;
43449;SDS011;29041;42.266;23.110;2023-10-19T02:34:49;10.13;;;4.90;;
43449;SDS011;29041;42.266;23.110;2023-10-19T02:37:36;9.45;;;5.90;;
43449;SDS011;29041;42.266;23.110;2023-10-19T02:40:24;12.15;;;6.18;;
43449;SDS011;29041;42.266;23.110;2023-10-19T02:43:16;12.07;;;5.65;;
43449;SDS011;29041;42.266;23.110;2023-10-19T02:46:02;11.05;;;5.55;;
43449;SDS011;29041;42.266;23.110;2023-10-19T02:48:51;13.02;;;5.18;;
43449;SDS011;29041;42.266;23.110;2023-10-19T02:51:39;9.23;;;5.47;;
43449;SDS011;29041;42.266;23.110;2023-10-19T02:54:26;10.85;;;5.05;;
43449;SDS011;29041;42.266;23.110;2023-10-19T02:57:18;16.95;;;6.38;;
43449;SDS011;29041;42.266;23.110;2023-10-19T03:00:05;9.90;;;6.10;;
43449;SDS011;29041;42.266;23.110;2023-10-19T03:02:58;14.57;;;5.90;;
43449;SDS011;29041;42.266;23.110;2023-10-19T03:05:47;13.18;;;5.18;;
43449;SDS011;29041;42.266;23.110;2023-10-19T03:08:34;13.82;;;5.85;;
43449;SDS011;29041;42.266;23.110;2023-10-19T03:11:21;7.57;;;4.60;;
43449;SDS011;29041;42.266;23.110;2023-10-19T03:14:10;8.48;;;4.95;;
43449;SDS011;29041;42.266;23.110;2023-10-19T03:17:00;12.60;;;4.72;;
43449;SDS011;29041;42.266;23.110;2023-10-19T03:19:46;10.40;;;5.43;;
43449;SDS011;29041;42.266;23.110;2023-10-19T03:22:35;9.05;;;4.55;;
43449;SDS011;29041;42.266;23.110;2023-10-19T03:25:23;9.88;;;4.38;;
43449;SDS011;29041;42.266;23.110;2023-10-19T03:28:27;9.13;;;4.13;;
43449;SDS011;29041;42.266;23.110;2023-10-19T03:31:15;9.23;;;4.78;;
43449;SDS011;29041;42.266;23.110;2023-10-19T03:34:04;11.63;;;5.18;;
43449;SDS011;29041;42.266;23.110;2023-10-19T03:36:51;10.48;;;5.00;;
43449;SDS011;29041;42.266;23.110;2023-10-19T03:39:41;8.63;;;4.90;;
43449;SDS011;29041;42.266;23.110;2023-10-19T03:42:31;21.42;;;6.05;;
43449;SDS011;29041;42.266;23.110;2023-10-19T03:45:18;10.65;;;4.75;;
43449;SDS011;29041;42.266;23.110;2023-10-19T03:48:09;11.23;;;4.65;;
43449;SDS011;29041;42.266;23.110;2023-10-19T03:50:57;15.00;;;5.65;;
43449;SDS011;29041;42.266;23.110;2023-10-19T03:53:47;7.70;;;4.93;;
43449;SDS011;29041;42.266;23.110;2023-10-19T03:56:41;11.00;;;5.38;;
43449;SDS011;29041;42.266;23.110;2023-10-19T03:59:29;13.73;;;6.05;;
43449;SDS011;29041;42.266;23.110;2023-10-19T04:02:19;11.75;;;6.50;;
43449;SDS011;29041;42.266;23.110;2023-10-19T04:05:07;16.33;;;6.65;;
43449;SDS011;29041;42.266;23.110;2023-10-19T04:07:55;12.05;;;6.20;;
43449;SDS011;29041;42.266;23.110;2023-10-19T04:10:43;19.20;;;9.45;;
43449;SDS011;29041;42.266;23.110;2023-10-19T04:13:54;8.25;;;4.75;;
43449;SDS011;29041;42.266;23.110;2023-10-19T04:16:44;10.05;;;5.90;;
43449;SDS011;29041;42.266;23.110;2023-10-19T04:19:34;10.45;;;5.05;;
43449;SDS011;29041;42.266;23.110;2023-10-19T04:22:24;12.60;;;6.68;;
43449;SDS011;29041;42.266;23.110;2023-10-19T04:25:21;8.65;;;5.45;;
43449;SDS011;29041;42.266;23.110;2023-10-19T04:28:12;11.73;;;6.30;;
43449;SDS011;29041;42.266;23.110;2023-10-19T04:31:02;9.07;;;4.57;;
43449;SDS011;29041;42.266;23.110;2023-10-19T04:33:49;7.85;;;4.60;;
43449;SDS011;29041;42.266;23.110;2023-10-19T04:36:36;11.10;;;6.05;;
43449;SDS011;29041;42.266;23.110;2023-10-19T04:39:25;8.27;;;4.82;;
43449;SDS011;29041;42.266;23.110;2023-10-19T04:42:13;6.78;;;5.22;;
43449;SDS011;29041;42.266;23.110;2023-10-19T04:45:00;8.48;;;4.43;;
43449;SDS011;29041;42.266;23.110;2023-10-19T04:47:51;8.02;;;5.45;;
43449;SDS011;29041;42.266;23.110;2023-10-19T04:50:40;6.20;;;4.43;;
43449;SDS011;29041;42.266;23.110;2023-10-19T04:53:27;8.98;;;5.43;;
43449;SDS011;29041;42.266;23.110;2023-10-19T04:56:14;10.85;;;5.05;;
43449;SDS011;29041;42.266;23.110;2023-10-19T04:59:01;8.40;;;4.78;;
43449;SDS011;29041;42.266;23.110;2023-10-19T05:01:49;11.40;;;6.90;;
43449;SDS011;29041;42.266;23.110;2023-10-19T05:04:38;7.43;;;5.07;;
43449;SDS011;29041;42.266;23.110;2023-10-19T05:07:26;7.50;;;5.50;;
43449;SDS011;29041;42.266;23.110;2023-10-19T05:10:14;8.80;;;4.97;;
43449;SDS011;29041;42.266;23.110;2023-10-19T05:13:01;8.25;;;5.13;;
43449;SDS011;29041;42.266;23.110;2023-10-19T05:15:54;12.40;;;4.63;;
43449;SDS011;29041;42.266;23.110;2023-10-19T05:18:42;14.55;;;6.13;;
43449;SDS011;29041;42.266;23.110;2023-10-19T05:21:31;6.03;;;4.13;;
43449;SDS011;29041;42.266;23.110;2023-10-19T05:24:19;12.30;;;5.22;;
43449;SDS011;29041;42.266;23.110;2023-10-19T05:27:06;14.13;;;7.00;;
43449;SDS011;29041;42.266;23.110;2023-10-19T05:29:55;11.07;;;5.40;;
43449;SDS011;29041;42.266;23.110;2023-10-19T05:32:42;9.27;;;5.00;;
43449;SDS011;29041;42.266;23.110;2023-10-19T05:35:31;6.15;;;4.32;;
43449;SDS011;29041;42.266;23.110;2023-10-19T05:38:27;7.32;;;3.88;;
43449;SDS011;29041;42.266;23.110;2023-10-19T05:41:14;8.10;;;5.07;;
43449;SDS011;29041;42.266;23.110;2023-10-19T05:44:04;7.00;;;3.45;;
43449;SDS011;29041;42.266;23.110;2023-10-19T05:46:53;9.02;;;4.90;;
43449;SDS011;29041;42.266;23.110;2023-10-19T05:49:42;7.45;;;4.25;;
43449;SDS011;29041;42.266;23.110;2023-10-19T05:52:29;16.00;;;5.95;;
43449;SDS011;29041;42.266;23.110;2023-10-19T05:55:18;9.65;;;5.40;;
43449;SDS011;29041;42.266;23.110;2023-10-19T05:58:07;12.35;;;5.03;;
43449;SDS011;29041;42.266;23.110;2023-10-19T06:00:57;9.55;;;5.18;;
43449;SDS011;29041;42.266;23.110;2023-10-19T06:03:45;11.13;;;5.75;;
43449;SDS011;29041;42.266;23.110;2023-10-19T06:06:32;14.27;;;6.28;;
43449;SDS011;29041;42.266;23.110;2023-10-19T06:09:20;9.55;;;4.63;;
43449;SDS011;29041;42.266;23.110;2023-10-19T06:12:16;9.43;;;4.90;;
43449;SDS011;29041;42.266;23.110;2023-10-19T06:15:04;9.13;;;4.65;;
43449;SDS011;29041;42.266;23.110;2023-10-19T06:17:53;7.88;;;4.85;;
43449;SDS011;29041;42.266;23.110;2023-10-19T06:20:42;13.60;;;6.15;;
43449;SDS011;29041;42.266;23.110;2023-10-19T06:23:30;9.30;;;5.15;;
43449;SDS011;29041;42.266;23.110;2023-10-19T06:26:17;13.23;;;6.32;;
43449;SDS011;29041;42.266;23.110;2023-10-19T06:29:06;13.27;;;5.80;;
43449;SDS011;29041;42.266;23.110;2023-10-19T06:31:53;8.90;;;4.57;;
43449;SDS011;29041;42.266;23.110;2023-10-19T06:34:40;9.93;;;5.40;;
43449;SDS011;29041;42.266;23.110;2023-10-19T06:37:27;10.57;;;5.25;;
43449;SDS011;29041;42.266;23.110;2023-10-19T06:40:15;12.60;;;6.65;;
43449;SDS011;29041;42.266;23.110;2023-10-19T06:43:03;10.75;;;5.57;;
43449;SDS011;29041;42.266;23.110;2023-10-19T06:45:53;14.95;;;6.68;;
43449;SDS011;29041;42.266;23.110;2023-10-19T06:48:40;15.68;;;7.70;;
43449;SDS011;29041;42.266;23.110;2023-10-19T06:51:27;11.93;;;5.80;;
43449;SDS011;29041;42.266;23.110;2023-10-19T06:54:15;12.02;;;6.72;;
43449;SDS011;29041;42.266;23.110;2023-10-19T06:57:02;13.32;;;7.13;;
43449;SDS011;29041;42.266;23.110;2023-10-19T06:59:49;14.15;;;6.55;;
43449;SDS011;29041;42.266;23.110;2023-10-19T07:02:39;16.10;;;7.55;;
43449;SDS011;29041;42.266;23.110;2023-10-19T07:05:27;15.57;;;6.95;;
43449;SDS011;29041;42.266;23.110;2023-10-19T07:08:16;12.52;;;6.50;;
43449;SDS011;29041;42.266;23.110;2023-10-19T07:11:05;15.57;;;8.18;;
43449;SDS011;29041;42.266;23.110;2023-10-19T07:13:52;17.88;;;7.60;;
43449;SDS011;29041;42.266;23.110;2023-10-19T07:16:39;18.95;;;7.30;;
43449;SDS011;29041;42.266;23.110;2023-10-19T07:19:28;19.70;;;7.50;;
43449;SDS011;29041;42.266;23.110;2023-10-19T07:22:15;14.70;;;7.03;;
43449;SDS011;29041;42.266;23.110;2023-10-19T07:25:03;7.97;;;5.70;;
43449;SDS011;29041;42.266;23.110;2023-10-19T07:27:51;15.27;;;6.45;;
43449;SDS011;29041;42.266;23.110;2023-10-19T07:30:39;11.80;;;5.72;;
43449;SDS011;29041;42.266;23.110;2023-10-19T07:33:27;13.02;;;5.75;;
43449;SDS011;29041;42.266;23.110;2023-10-19T07:36:16;8.82;;;4.30;;
43449;SDS011;29041;42.266;23.110;2023-10-19T07:39:04;7.85;;;4.32;;
43449;SDS011;29041;42.266;23.110;2023-10-19T07:41:59;12.50;;;6.75;;
43449;SDS011;29041;42.266;23.110;2023-10-19T07:44:46;11.55;;;6.07;;
43449;SDS011;29041;42.266;23.110;2023-10-19T07:47:34;10.18;;;4.75;;
43449;SDS011;29041;42.266;23.110;2023-10-19T07:50:22;8.88;;;4.15;;
43449;SDS011;29041;42.266;23.110;2023-10-19T07:53:11;10.90;;;4.95;;
43449;SDS011;29041;42.266;23.110;2023-10-19T07:55:58;11.02;;;4.75;;
43449;SDS011;29041;42.266;23.110;2023-10-19T07:58:48;11.40;;;4.20;;
43449;SDS011;29041;42.266;23.110;2023-10-19T08:01:37;5.22;;;3.20;;
43449;SDS011;29041;42.266;23.110;2023-10-19T08:04:24;8.00;;;3.72;;
43449;SDS011;29041;42.266;23.110;2023-10-19T08:07:13;5.28;;;2.92;;
43449;SDS011;29041;42.266;23.110;2023-10-19T08:10:04;7.88;;;3.20;;
43449;SDS011;29041;42.266;23.110;2023-10-19T08:12:54;4.03;;;2.38;;
43449;SDS011;29041;42.266;23.110;2023-10-19T08:15:42;4.97;;;3.28;;
43449;SDS011;29041;42.266;23.110;2023-10-19T08:18:29;3.40;;;2.63;;
43449;SDS011;29041;42.266;23.110;2023-10-19T08:21:17;5.55;;;2.92;;
43449;SDS011;29041;42.266;23.110;2023-10-19T08:24:14;3.97;;;3.53;;
43449;SDS011;29041;42.266;23.110;2023-10-19T08:27:05;3.40;;;2.15;;
43449;SDS011;29041;42.266;23.110;2023-10-19T08:29:53;4.50;;;2.50;;
43449;SDS011;29041;42.266;23.110;2023-10-19T08:32:42;6.07;;;3.33;;
43449;SDS011;29041;42.266;23.110;2023-10-19T08:35:34;4.88;;;2.58;;
43449;SDS011;29041;42.266;23.110;2023-10-19T08:38:21;4.10;;;2.95;;
43449;SDS011;29041;42.266;23.110;2023-10-19T08:41:08;5.25;;;3.25;;
43449;SDS011;29041;42.266;23.110;2023-10-19T08:43:57;4.50;;;2.70;;
43449;SDS011;29041;42.266;23.110;2023-10-19T08:46:45;4.00;;;2.65;;
43449;SDS011;29041;42.266;23.110;2023-10-19T08:49:33;5.93;;;2.92;;
43449;SDS011;29041;42.266;23.110;2023-10-19T08:52:22;5.05;;;3.15;;
43449;SDS011;29041;42.266;23.110;2023-10-19T08:55:11;4.32;;;2.97;;
43449;SDS011;29041;42.266;23.110;2023-10-19T08:57:59;4.60;;;3.17;;
43449;SDS011;29041;42.266;23.110;2023-10-19T09:00:48;9.13;;;4.53;;
43449;SDS011;29041;42.266;23.110;2023-10-19T09:06:26;6.95;;;4.15;;
43449;SDS011;29041;42.266;23.110;2023-10-19T09:09:14;7.38;;;3.78;;
43449;SDS011;29041;42.266;23.110;2023-10-19T09:12:05;6.55;;;3.55;;
43449;SDS011;29041;42.266;23.110;2023-10-19T09:14:53;4.45;;;3.40;;
43449;SDS011;29041;42.266;23.110;2023-10-19T09:17:41;5.00;;;3.33;;
43449;SDS011;29041;42.266;23.110;2023-10-19T09:20:29;6.03;;;3.60;;
43449;SDS011;29041;42.266;23.110;2023-10-19T09:23:16;4.53;;;2.80;;
43449;SDS011;29041;42.266;23.110;2023-10-19T09:26:04;4.57;;;3.60;;
43449;SDS011;29041;42.266;23.110;2023-10-19T09:28:54;5.22;;;3.58;;
43449;SDS011;29041;42.266;23.110;2023-10-19T09:31:46;6.22;;;3.65;;
43449;SDS011;29041;42.266;23.110;2023-10-19T09:34:44;4.65;;;2.90;;
43449;SDS011;29041;42.266;23.110;2023-10-19T09:37:33;6.57;;;4.28;;
43449;SDS011;29041;42.266;23.110;2023-10-19T09:40:21;3.85;;;2.53;;
43449;SDS011;29041;42.266;23.110;2023-10-19T09:43:12;3.65;;;2.40;;
43449;SDS011;29041;42.266;23.110;2023-10-19T09:46:05;5.07;;;2.85;;
43449;SDS011;29041;42.266;23.110;2023-10-19T09:48:54;3.72;;;2.13;;
43449;SDS011;29041;42.266;23.110;2023-10-19T09:51:43;3.80;;;2.40;;
43449;SDS011;29041;42.266;23.110;2023-10-19T09:54:38;5.43;;;2.90;;
43449;SDS011;29041;42.266;23.110;2023-10-19T09:57:34;13.60;;;3.65;;
43449;SDS011;29041;42.266;23.110;2023-10-19T10:00:24;7.38;;;3.15;;
43449;SDS011;29041;42.266;23.110;2023-10-19T10:06:57;3.53;;;2.10;;
43449;SDS011;29041;42.266;23.110;2023-10-19T10:09:45;3.25;;;2.00;;
43449;SDS011;29041;42.266;23.110;2023-10-19T10:12:35;5.72;;;3.65;;
43449;SDS011;29041;42.266;23.110;2023-10-19T10:15:26;2.80;;;2.10;;
43449;SDS011;29041;42.266;23.110;2023-10-19T10:18:27;1.58;;;0.90;;
43449;SDS011;29041;42.266;23.110;2023-10-19T10:21:18;1.58;;;0.93;;
43449;SDS011;29041;42.266;23.110;2023-10-19T10:24:09;0.88;;;0.63;;
43449;SDS011;29041;42.266;23.110;2023-10-19T10:27:00;1.52;;;1.02;;
43449;SDS011;29041;42.266;23.110;2023-10-19T10:29:55;1.35;;;1.02;;
43449;SDS011;29041;42.266;23.110;2023-10-19T10:32:44;1.20;;;1.10;;
43449;SDS011;29041;42.266;23.110;2023-10-19T10:35:53;0.80;;;0.63;;
43449;SDS011;29041;42.266;23.110;2023-10-19T10:38:41;0.63;;;0.50;;
43449;SDS011;29041;42.266;23.110;2023-10-19T10:41:30;1.50;;;0.93;;
43449;SDS011;29041;42.266;23.110;2023-10-19T10:44:17;7.07;;;1.40;;
43449;SDS011;29041;42.266;23.110;2023-10-19T10:47:05;2.15;;;1.33;;
43449;SDS011;29041;42.266;23.110;2023-10-19T10:49:55;1.30;;;0.90;;
43449;SDS011;29041;42.266;23.110;2023-10-19T10:52:43;1.30;;;1.00;;
43449;SDS011;29041;42.266;23.110;2023-10-19T10:55:30;0.60;;;0.43;;
43449;SDS011;29041;42.266;23.110;2023-10-19T10:58:19;2.47;;;0.80;;
43449;SDS011;29041;42.266;23.110;2023-10-19T11:01:07;1.05;;;0.60;;
43449;SDS011;29041;42.266;23.110;2023-10-19T11:04:05;5.63;;;1.48;;
43449;SDS011;29041;42.266;23.110;2023-10-19T11:06:52;1.75;;;0.70;;
43449;SDS011;29041;42.266;23.110;2023-10-19T11:09:44;2.10;;;1.10;;
43449;SDS011;29041;42.266;23.110;2023-10-19T11:12:32;1.00;;;0.80;;
43449;SDS011;29041;42.266;23.110;2023-10-19T11:15:22;1.17;;;0.85;;
43449;SDS011;29041;42.266;23.110;2023-10-19T11:18:10;1.67;;;1.08;;
43449;SDS011;29041;42.266;23.110;2023-10-19T11:20:57;2.25;;;0.95;;
43449;SDS011;29041;42.266;23.110;2023-10-19T11:23:50;1.33;;;0.80;;
43449;SDS011;29041;42.266;23.110;2023-10-19T11:26:39;1.95;;;1.20;;
43449;SDS011;29041;42.266;23.110;2023-10-19T11:29:27;0.70;;;0.52;;
43449;SDS011;29041;42.266;23.110;2023-10-19T11:32:16;0.88;;;0.70;;
43449;SDS011;29041;42.266;23.110;2023-10-19T11:35:03;1.10;;;0.60;;
43449;SDS011;29041;42.266;23.110;2023-10-19T11:37:52;2.35;;;1.05;;
43449;SDS011;29041;42.266;23.110;2023-10-19T11:40:40;2.60;;;1.05;;
43449;SDS011;29041;42.266;23.110;2023-10-19T11:43:28;1.92;;;0.93;;
43449;SDS011;29041;42.266;23.110;2023-10-19T11:46:15;0.47;;;0.47;;
43449;SDS011;29041;42.266;23.110;2023-10-19T11:49:05;0.80;;;0.60;;
43449;SDS011;29041;42.266;23.110;2023-10-19T11:51:52;3.97;;;0.77;;
43449;SDS011;29041;42.266;23.110;2023-10-19T11:54:39;1.00;;;0.60;;
43449;SDS011;29041;42.266;23.110;2023-10-19T11:57:27;4.28;;;1.48;;
43449;SDS011;29041;42.266;23.110;2023-10-19T12:00:15;1.00;;;0.90;;
43449;SDS011;29041;42.266;23.110;2023-10-19T12:03:07;0.60;;;0.47;;
43449;SDS011;29041;42.266;23.110;2023-10-19T12:05:56;1.70;;;0.88;;
43449;SDS011;29041;42.266;23.110;2023-10-19T12:08:43;0.82;;;0.57;;
43449;SDS011;29041;42.266;23.110;2023-10-19T12:11:30;0.50;;;0.40;;
43449;SDS011;29041;42.266;23.110;2023-10-19T12:14:17;1.25;;;0.77;;
43449;SDS011;29041;42.266;23.110;2023-10-19T12:17:04;0.93;;;0.68;;
43449;SDS011;29041;42.266;23.110;2023-10-19T12:19:53;0.88;;;0.60;;
43449;SDS011;29041;42.266;23.110;2023-10-19T12:22:42;0.93;;;0.57;;
43449;SDS011;29041;42.266;23.110;2023-10-19T12:25:29;1.52;;;0.80;;
43449;SDS011;29041;42.266;23.110;2023-10-19T12:28:17;1.20;;;0.60;;
43449;SDS011;29041;42.266;23.110;2023-10-19T12:31:04;1.75;;;0.60;;
43449;SDS011;29041;42.266;23.110;2023-10-19T12:33:54;4.88;;;0.68;;
43449;SDS011;29041;42.266;23.110;2023-10-19T12:36:41;0.63;;;0.50;;
43449;SDS011;29041;42.266;23.110;2023-10-19T12:39:33;0.82;;;0.70;;
43449;SDS011;29041;42.266;23.110;2023-10-19T12:42:28;1.50;;;0.82;;
43449;SDS011;29041;42.266;23.110;2023-10-19T12:45:15;1.50;;;0.90;;
43449;SDS011;29041;42.266;23.110;2023-10-19T12:48:06;1.38;;;0.73;;
43449;SDS011;29041;42.266;23.110;2023-10-19T12:50:55;0.52;;;0.43;;
43449;SDS011;29041;42.266;23.110;2023-10-19T12:53:42;1.33;;;0.85;;
43449;SDS011;29041;42.266;23.110;2023-10-19T12:56:32;1.85;;;0.75;;
43449;SDS011;29041;42.266;23.110;2023-10-19T12:59:21;0.80;;;0.70;;
43449;SDS011;29041;42.266;23.110;2023-10-19T13:02:08;0.85;;;0.57;;
43449;SDS011;29041;42.266;23.110;2023-10-19T13:04:55;1.60;;;1.02;;
43449;SDS011;29041;42.266;23.110;2023-10-19T13:07:44;1.05;;;0.50;;
43449;SDS011;29041;42.266;23.110;2023-10-19T13:10:32;1.70;;;0.65;;
43449;SDS011;29041;42.266;23.110;2023-10-19T13:13:22;0.82;;;0.70;;
43449;SDS011;29041;42.266;23.110;2023-10-19T13:16:09;0.60;;;0.47;;
43449;SDS011;29041;42.266;23.110;2023-10-19T13:18:56;1.15;;;0.77;;
43449;SDS011;29041;42.266;23.110;2023-10-19T13:21:43;2.25;;;0.85;;
43449;SDS011;29041;42.266;23.110;2023-10-19T13:24:31;2.05;;;1.15;;
43449;SDS011;29041;42.266;23.110;2023-10-19T13:27:26;0.88;;;0.50;;
43449;SDS011;29041;42.266;23.110;2023-10-19T13:30:16;3.25;;;0.88;;
43449;SDS011;29041;42.266;23.110;2023-10-19T13:33:04;1.50;;;1.05;;
43449;SDS011;29041;42.266;23.110;2023-10-19T13:35:51;2.15;;;0.90;;
43449;SDS011;29041;42.266;23.110;2023-10-19T13:38:39;1.48;;;1.10;;
43449;SDS011;29041;42.266;23.110;2023-10-19T13:41:26;1.20;;;0.63;;
43449;SDS011;29041;42.266;23.110;2023-10-19T13:44:13;2.75;;;1.20;;
43449;SDS011;29041;42.266;23.110;2023-10-19T13:47:07;2.25;;;1.65;;
43449;SDS011;29041;42.266;23.110;2023-10-19T13:49:54;1.58;;;0.77;;
43449;SDS011;29041;42.266;23.110;2023-10-19T13:52:41;4.13;;;2.55;;
43449;SDS011;29041;42.266;23.110;2023-10-19T13:55:29;2.17;;;0.85;;
43449;SDS011;29041;42.266;23.110;2023-10-19T13:58:16;4.80;;;2.13;;
43449;SDS011;29041;42.266;23.110;2023-10-19T14:01:06;4.60;;;2.85;;
43449;SDS011;29041;42.266;23.110;2023-10-19T14:03:55;5.28;;;3.40;;
43449;SDS011;29041;42.266;23.110;2023-10-19T14:06:42;15.48;;;8.88;;
43449;SDS011;29041;42.266;23.110;2023-10-19T14:09:30;2.83;;;1.80;;
43449;SDS011;29041;42.266;23.110;2023-10-19T14:12:18;3.38;;;1.58;;
43449;SDS011;29041;42.266;23.110;2023-10-19T14:15:06;3.35;;;2.17;;
43449;SDS011;29041;42.266;23.110;2023-10-19T14:17:55;4.60;;;2.15;;
43449;SDS011;29041;42.266;23.110;2023-10-19T14:20:45;8.13;;;4.50;;
43449;SDS011;29041;42.266;23.110;2023-10-19T14:23:32;10.40;;;6.93;;
43449;SDS011;29041;42.266;23.110;2023-10-19T14:26:20;5.22;;;3.20;;
43449;SDS011;29041;42.266;23.110;2023-10-19T14:29:07;6.00;;;2.22;;
43449;SDS011;29041;42.266;23.110;2023-10-19T14:31:55;18.58;;;9.40;;
43449;SDS011;29041;42.266;23.110;2023-10-19T14:34:42;4.10;;;1.80;;
43449;SDS011;29041;42.266;23.110;2023-10-19T14:37:30;6.70;;;3.60;;
43449;SDS011;29041;42.266;23.110;2023-10-19T14:40:18;1.75;;;1.20;;
43449;SDS011;29041;42.266;23.110;2023-10-19T14:43:06;6.80;;;3.10;;
43449;SDS011;29041;42.266;23.110;2023-10-19T14:45:53;8.43;;;5.25;;
43449;SDS011;29041;42.266;23.110;2023-10-19T14:48:41;3.42;;;2.15;;
43449;SDS011;29041;42.266;23.110;2023-10-19T14:51:28;1.95;;;1.52;;
43449;SDS011;29041;42.266;23.110;2023-10-19T14:54:26;1.63;;;1.35;;
43449;SDS011;29041;42.266;23.110;2023-10-19T14:57:14;2.63;;;1.75;;
43449;SDS011;29041;42.266;23.110;2023-10-19T15:00:08;2.28;;;1.83;;
43449;SDS011;29041;42.266;23.110;2023-10-19T15:03:01;3.00;;;1.63;;
43449;SDS011;29041;42.266;23.110;2023-10-19T15:05:52;2.65;;;1.52;;
43449;SDS011;29041;42.266;23.110;2023-10-19T15:08:40;3.17;;;1.52;;
43449;SDS011;29041;42.266;23.110;2023-10-19T15:11:29;2.55;;;1.73;;
43449;SDS011;29041;42.266;23.110;2023-10-19T15:14:16;6.72;;;1.77;;
43449;SDS011;29041;42.266;23.110;2023-10-19T15:17:03;1.70;;;1.20;;
43449;SDS011;29041;42.266;23.110;2023-10-19T15:19:51;3.55;;;1.98;;
43449;SDS011;29041;42.266;23.110;2023-10-19T15:22:38;2.47;;;1.40;;
43449;SDS011;29041;42.266;23.110;2023-10-19T15:25:26;2.67;;;1.35;;
43449;SDS011;29041;42.266;23.110;2023-10-19T15:28:14;2.60;;;2.00;;
43449;SDS011;29041;42.266;23.110;2023-10-19T15:31:01;3.55;;;1.42;;
43449;SDS011;29041;42.266;23.110;2023-10-19T15:33:50;6.70;;;1.67;;
43449;SDS011;29041;42.266;23.110;2023-10-19T15:36:38;4.18;;;1.90;;
43449;SDS011;29041;42.266;23.110;2023-10-19T15:39:26;4.18;;;2.22;;
43449;SDS011;29041;42.266;23.110;2023-10-19T15:42:13;1.90;;;1.38;;
43449;SDS011;29041;42.266;23.110;2023-10-19T15:45:02;2.28;;;1.60;;
43449;SDS011;29041;42.266;23.110;2023-10-19T15:47:51;4.90;;;1.58;;
43449;SDS011;29041;42.266;23.110;2023-10-19T15:50:39;3.17;;;2.35;;
43449;SDS011;29041;42.266;23.110;2023-10-19T15:53:27;2.15;;;1.45;;
43449;SDS011;29041;42.266;23.110;2023-10-19T15:56:14;4.78;;;2.38;;
43449;SDS011;29041;42.266;23.110;2023-10-19T15:59:03;2.72;;;1.67;;
43449;SDS011;29041;42.266;23.110;2023-10-19T16:01:53;1.92;;;1.27;;
43449;SDS011;29041;42.266;23.110;2023-10-19T16:04:41;1.30;;;1.10;;
43449;SDS011;29041;42.266;23.110;2023-10-19T16:07:29;1.73;;;1.50;;
43449;SDS011;29041;42.266;23.110;2023-10-19T16:10:16;4.10;;;2.40;;
43449;SDS011;29041;42.266;23.110;2023-10-19T16:13:04;3.25;;;1.55;;
43449;SDS011;29041;42.266;23.110;2023-10-19T16:15:53;2.03;;;1.58;;
43449;SDS011;29041;42.266;23.110;2023-10-19T16:18:42;2.90;;;1.17;;
43449;SDS011;29041;42.266;23.110;2023-10-19T16:21:30;2.45;;;1.75;;
43449;SDS011;29041;42.266;23.110;2023-10-19T16:24:17;3.80;;;1.77;;
43449;SDS011;29041;42.266;23.110;2023-10-19T16:27:04;2.92;;;1.83;;
43449;SDS011;29041;42.266;23.110;2023-10-19T16:29:53;3.63;;;2.22;;
43449;SDS011;29041;42.266;23.110;2023-10-19T16:32:40;2.13;;;1.77;;
43449;SDS011;29041;42.266;23.110;2023-10-19T16:35:30;2.42;;;1.40;;
43449;SDS011;29041;42.266;23.110;2023-10-19T16:38:17;2.15;;;1.30;;
43449;SDS011;29041;42.266;23.110;2023-10-19T16:41:05;1.70;;;1.27;;
43449;SDS011;29041;42.266;23.110;2023-10-19T16:43:52;2.90;;;1.50;;
43449;SDS011;29041;42.266;23.110;2023-10-19T16:46:39;1.75;;;1.40;;
43449;SDS011;29041;42.266;23.110;2023-10-19T16:49:26;2.70;;;2.05;;